Time;durP1;ratioP1;P1;durP2;ratioP2;P2;SDS_P1;SDS_P2;PMS_P1;PMS_P2;Temp;Humidity;BMP_temperature;BMP_pressure;BME280_temperature;BME280_humidity;BME280_pressure;Samples;Min_cycle;Max_cycle;Signal;HPM_P1;HPM_P2
2021/08/27 00:01:24;;;;;;;11.53;5.80;;;;;;;12.67;96.38;98401.98;3907276;89;21091;-82
2021/08/27 00:07:25;;;;;;;13.70;7.03;;;;;;;12.51;96.83;98396.98;3900643;90;21699;-82
2021/08/27 00:13:26;;;;;;;10.20;5.70;;;;;;;12.59;96.78;98380.66;3904841;90;21606;-82
2021/08/27 00:19:27;;;;;;;16.48;5.15;;;;;;;12.62;96.92;98388.09;3896964;90;21072;-83
2021/08/27 00:25:28;;;;;;;7.78;4.47;;;;;;;12.71;96.90;98395.28;3899666;90;21136;-83
2021/08/27 00:31:31;;;;;;;6.58;4.12;;;;;;;12.81;96.96;98392.27;3903617;89;21627;-83
2021/08/27 00:37:34;;;;;;;8.38;4.55;;;;;;;12.89;96.87;98388.28;3892728;90;21071;-83
2021/08/27 00:43:35;;;;;;;7.37;4.30;;;;;;;12.97;97.01;98393.89;3901376;89;21037;-82
2021/08/27 00:49:37;;;;;;;9.75;4.37;;;;;;;12.98;96.80;98394.89;3904819;90;21574;-83
2021/08/27 00:55:39;;;;;;;10.00;5.00;;;;;;;12.93;96.82;98391.20;3906501;89;21134;-82
2021/08/27 01:01:40;;;;;;;7.83;4.72;;;;;;;12.88;97.03;98388.88;3904895;89;21124;-82
2021/08/27 01:07:53;;;;;;;8.75;5.05;;;;;;;12.88;97.32;98390.25;3893467;89;21111;-82
2021/08/27 01:14:07;;;;;;;7.95;3.92;;;;;;;12.80;97.29;98396.18;3898580;90;21053;-85
2021/08/27 01:21:05;;;;;;;7.65;4.92;;;;;;;12.83;97.42;98387.92;3883658;89;21144;-82
2021/08/27 01:27:10;;;;;;;10.23;5.72;;;;;;;12.93;97.46;98380.20;3892111;90;21583;-82
2021/08/27 01:33:16;;;;;;;10.13;4.75;;;;;;;12.89;97.56;98382.80;3892899;89;21658;-83
2021/08/27 01:39:20;;;;;;;7.58;4.50;;;;;;;12.94;97.35;98376.84;3893658;90;21115;-82
2021/08/27 01:45:23;;;;;;;8.38;5.58;;;;;;;12.89;97.16;98371.80;3895959;90;21171;-83
2021/08/27 01:51:26;;;;;;;10.13;5.20;;;;;;;12.65;97.23;98376.30;3892242;90;22252;-82
2021/08/27 01:57:27;;;;;;;10.70;5.70;;;;;;;12.52;97.47;98391.09;3891599;89;21055;-83
2021/08/27 02:03:31;;;;;;;8.03;5.03;;;;;;;12.52;97.72;98398.53;3894217;90;21162;-81
2021/08/27 02:09:34;;;;;;;8.00;4.58;;;;;;;12.50;97.95;98398.94;3886329;89;21052;-82
2021/08/27 02:15:36;;;;;;;10.40;4.58;;;;;;;12.55;98.07;98408.71;3887814;89;21117;-82
2021/08/27 02:21:41;;;;;;;8.03;4.25;;;;;;;12.69;98.12;98403.13;3889962;89;21036;-82
2021/08/27 02:27:45;;;;;;;8.20;4.40;;;;;;;12.68;97.70;98416.68;3895220;90;21227;-82
2021/08/27 02:33:48;;;;;;;9.95;4.40;;;;;;;12.64;98.01;98422.19;3899745;89;21067;-83
2021/08/27 02:39:49;;;;;;;6.42;4.72;;;;;;;12.77;97.96;98417.00;3895637;90;21211;-82
2021/08/27 02:45:51;;;;;;;12.70;5.85;;;;;;;12.83;97.94;98412.64;3896484;89;21182;-82
2021/08/27 02:52:06;;;;;;;6.33;4.10;;;;;;;12.76;97.76;98418.20;3903437;90;21071;-83
2021/08/27 02:58:26;;;;;;;7.85;4.28;;;;;;;12.68;97.66;98416.68;3889308;89;21089;-82
2021/08/27 03:04:39;;;;;;;6.00;4.03;;;;;;;12.63;97.67;98426.13;3906200;89;21088;-82
2021/08/27 03:10:46;;;;;;;6.28;4.00;;;;;;;12.48;97.94;98433.48;3886540;90;21107;-83
2021/08/27 03:16:48;;;;;;;9.08;4.10;;;;;;;12.50;98.15;98435.21;3896403;89;21071;-84
2021/08/27 03:22:54;;;;;;;6.78;4.50;;;;;;;12.63;98.28;98438.48;3899446;90;21184;-82
2021/08/27 03:29:01;;;;;;;8.47;3.57;;;;;;;12.53;97.88;98438.52;3897007;89;21160;-83
2021/08/27 03:35:03;;;;;;;5.30;3.55;;;;;;;12.61;98.29;98442.22;3897636;90;21081;-84
2021/08/27 03:41:05;;;;;;;6.45;3.50;;;;;;;12.68;98.42;98446.09;3911189;89;22116;-82
2021/08/27 03:47:08;;;;;;;8.53;4.03;;;;;;;12.76;98.35;98450.37;3919314;89;21076;-83
2021/08/27 03:53:11;;;;;;;8.43;3.95;;;;;;;12.82;98.01;98451.50;3913185;90;21644;-82
2021/08/27 03:59:13;;;;;;;7.10;3.50;;;;;;;12.79;98.09;98443.48;3908450;89;21616;-82
2021/08/27 04:05:18;;;;;;;8.78;4.15;;;;;;;12.68;97.84;98447.65;3905300;89;21162;-82
2021/08/27 04:11:19;;;;;;;8.53;3.77;;;;;;;12.70;98.15;98449.99;3905262;90;21429;-83
2021/08/27 04:17:21;;;;;;;6.42;3.83;;;;;;;12.71;98.05;98448.83;3914998;89;21131;-82
2021/08/27 04:23:24;;;;;;;9.13;4.10;;;;;;;12.68;97.87;98448.27;3909499;89;21094;-82
2021/08/27 04:29:25;;;;;;;6.28;3.75;;;;;;;12.79;97.94;98452.30;3903526;89;21159;-82
2021/08/27 04:35:26;;;;;;;9.03;4.03;;;;;;;12.84;98.14;98458.17;3900408;90;21072;-83
2021/08/27 04:41:27;;;;;;;6.45;3.58;;;;;;;12.85;97.98;98463.84;3883484;90;21119;-82
2021/08/27 04:47:28;;;;;;;5.05;3.33;;;;;;;12.89;97.96;98468.71;3887366;90;21068;-82
2021/08/27 04:53:30;;;;;;;10.05;3.98;;;;;;;12.93;97.87;98471.44;3876453;91;21473;-83
2021/08/27 04:59:31;;;;;;;7.53;5.25;;;;;;;12.91;97.83;98478.71;3885976;91;21534;-84
2021/08/27 05:05:35;;;;;;;8.63;4.40;;;;;;;12.90;97.71;98484.61;3885154;90;21391;-84
2021/08/27 05:11:35;;;;;;;8.53;4.62;;;;;;;12.91;97.81;98480.67;3871520;91;21576;-83
2021/08/27 05:17:38;;;;;;;7.80;5.37;;;;;;;12.90;97.66;98479.91;3880581;91;21583;-82
2021/08/27 05:23:40;;;;;;;8.20;4.90;;;;;;;12.92;97.91;98473.40;3893734;90;21124;-83
2021/08/27 05:29:41;;;;;;;8.10;5.22;;;;;;;12.97;97.80;98470.81;3888121;89;21079;-83
2021/08/27 05:35:44;;;;;;;9.53;5.20;;;;;;;13.07;98.10;98473.54;3895595;88;21160;-83
2021/08/27 05:41:45;;;;;;;10.80;4.65;;;;;;;13.03;97.91;98471.39;3912177;90;21110;-82
2021/08/27 05:47:46;;;;;;;8.95;6.12;;;;;;;13.09;98.00;98475.88;3918638;90;21119;-82
2021/08/27 05:53:47;;;;;;;13.03;6.58;;;;;;;13.19;97.91;98477.75;3915151;90;21952;-84
2021/08/27 05:59:48;;;;;;;8.28;5.72;;;;;;;13.34;98.09;98475.09;3918303;90;21109;-84
2021/08/27 06:05:50;;;;;;;10.23;5.67;;;;;;;13.43;97.91;98473.45;3915667;90;21078;-83
2021/08/27 06:11:51;;;;;;;11.30;6.08;;;;;;;13.54;98.03;98488.48;3924244;89;21154;-83
2021/08/27 06:17:52;;;;;;;8.83;5.72;;;;;;;13.54;97.78;98489.27;3923377;89;21505;-82
2021/08/27 06:23:53;;;;;;;15.83;5.65;;;;;;;13.47;97.78;98489.31;3929767;89;21082;-82
2021/08/27 06:29:55;;;;;;;15.70;8.98;;;;;;;13.50;97.97;98497.36;3927263;89;21051;-84
2021/08/27 06:35:56;;;;;;;14.03;8.25;;;;;;;13.70;97.82;98501.11;3910276;90;21135;-84
2021/08/27 06:41:57;;;;;;;15.30;9.98;;;;;;;13.92;98.10;98500.47;3921805;89;21035;-83
2021/08/27 06:47:58;;;;;;;15.53;8.75;;;;;;;14.04;98.12;98501.35;3914334;89;21112;-82
2021/08/27 06:53:59;;;;;;;15.72;9.85;;;;;;;14.24;98.18;98497.42;3914729;89;21031;-82
2021/08/27 07:00:01;;;;;;;10.63;8.28;;;;;;;14.34;97.30;98510.30;3921446;89;21181;-82
2021/08/27 07:06:02;;;;;;;10.25;7.75;;;;;;;14.33;97.15;98515.59;3916038;89;21033;-82
2021/08/27 07:12:04;;;;;;;12.18;7.35;;;;;;;14.18;96.73;98515.55;3913749;89;21062;-84
2021/08/27 07:18:05;;;;;;;11.63;6.75;;;;;;;14.26;97.09;98521.20;3919341;90;21033;-81
2021/08/27 07:24:07;;;;;;;12.70;7.80;;;;;;;14.34;96.91;98513.63;3928555;89;21241;-83
2021/08/27 07:30:10;;;;;;;13.58;8.43;;;;;;;14.53;96.85;98505.55;3927367;90;21102;-82
2021/08/27 07:36:11;;;;;;;12.10;7.45;;;;;;;14.74;96.94;98507.22;3906546;90;21625;-82
2021/08/27 07:42:12;;;;;;;10.43;6.67;;;;;;;14.91;96.10;98514.49;3888835;90;21568;-82
2021/08/27 07:48:15;;;;;;;8.10;4.70;;;;;;;15.00;96.11;98505.86;3880598;90;21085;-83
2021/08/27 07:54:18;;;;;;;7.47;4.20;;;;;;;15.29;95.62;98507.02;3878874;90;21088;-83
2021/08/27 08:00:19;;;;;;;5.90;4.60;;;;;;;15.60;94.80;98508.52;3873077;90;22200;-83
2021/08/27 08:06:20;;;;;;;6.12;3.60;;;;;;;15.54;93.73;98519.85;3878353;90;21186;-83
2021/08/27 08:12:21;;;;;;;10.35;4.53;;;;;;;15.51;93.38;98516.55;3879147;90;21096;-83
2021/08/27 08:18:23;;;;;;;9.25;4.85;;;;;;;15.48;93.38;98524.29;3877469;91;21635;-84
2021/08/27 08:24:24;;;;;;;6.55;4.25;;;;;;;15.44;92.95;98529.06;3885224;90;21100;-82
2021/08/27 08:30:27;;;;;;;5.92;3.90;;;;;;;15.43;92.78;98531.66;3883571;90;21391;-82
2021/08/27 08:36:28;;;;;;;6.97;4.47;;;;;;;15.41;92.70;98532.66;3872318;89;21683;-83
2021/08/27 08:42:29;;;;;;;8.88;5.37;;;;;;;15.47;92.57;98535.74;3876359;90;21677;-83
2021/08/27 08:48:34;;;;;;;10.35;5.15;;;;;;;15.41;92.53;98530.52;3880767;91;21084;-82
2021/08/27 08:54:36;;;;;;;9.28;4.00;;;;;;;15.48;92.69;98533.94;3878145;91;21717;-83
2021/08/27 09:00:37;;;;;;;5.55;3.70;;;;;;;15.53;91.99;98537.58;3875803;91;22177;-82
2021/08/27 09:06:39;;;;;;;6.58;3.55;;;;;;;15.48;91.75;98531.77;3871819;90;21120;-83
2021/08/27 09:12:40;;;;;;;5.28;3.42;;;;;;;15.45;91.49;98539.51;3881165;90;21101;-83
2021/08/27 09:18:48;;;;;;;5.67;3.45;;;;;;;15.38;91.61;98547.88;3880660;90;21132;-83
2021/08/27 09:25:09;;;;;;;8.03;3.37;;;;;;;15.35;91.49;98553.61;3865282;91;21221;-82
2021/08/27 09:31:11;;;;;;;5.33;3.40;;;;;;;15.32;91.77;98552.27;3879279;90;21009;-82
2021/08/27 09:37:13;;;;;;;6.67;3.80;;;;;;;15.22;91.68;98549.09;3886227;89;21671;-82
2021/08/27 09:43:25;;;;;;;7.95;3.83;;;;;;;15.15;91.43;98551.94;3916353;89;22091;-81
2021/08/27 09:49:36;;;;;;;6.60;4.17;;;;;;;15.12;91.35;98560.45;3920240;89;21575;-83
2021/08/27 09:55:40;;;;;;;8.35;5.03;;;;;;;15.11;91.17;98554.73;3904182;90;21700;-82
2021/08/27 10:01:48;;;;;;;8.65;3.77;;;;;;;15.16;91.38;98559.03;3902179;90;21078;-82
2021/08/27 10:07:49;;;;;;;5.62;3.52;;;;;;;15.31;91.28;98557.62;3907681;89;21104;-83
2021/08/27 10:13:52;;;;;;;6.80;3.77;;;;;;;15.33;91.13;98556.61;3908400;89;21194;-82
2021/08/27 10:19:53;;;;;;;5.22;4.00;;;;;;;15.30;91.09;98558.83;3917172;89;21119;-84
2021/08/27 10:25:55;;;;;;;6.78;3.27;;;;;;;15.29;90.96;98561.38;3918854;90;21096;-81
2021/08/27 10:31:58;;;;;;;6.70;4.12;;;;;;;15.32;90.86;98564.09;3918206;89;21059;-84
2021/08/27 10:37:59;;;;;;;5.50;4.20;;;;;;;15.45;91.15;98559.61;3896339;90;21627;-84
2021/08/27 10:50:31;;;;;;;7.83;3.87;;;;;;;15.57;91.07;98564.53;3880307;91;21143;-84
2021/08/27 10:56:53;;;;;;;5.08;3.92;;;;;;;15.73;91.52;98569.41;3884229;90;21098;-84
2021/08/27 11:02:54;;;;;;;4.95;3.72;;;;;;;15.92;91.74;98568.70;3868551;90;21099;-83
2021/08/27 11:09:18;;;;;;;5.33;3.33;;;;;;;16.00;91.54;98565.20;3868088;91;21569;-84
2021/08/27 11:15:31;;;;;;;3.33;2.17;;;;;;;15.97;91.58;98565.46;3884167;90;21079;-83
2021/08/27 11:21:39;;;;;;;7.50;2.90;;;;;;;15.82;90.60;98564.74;3895860;91;21063;-83
2021/08/27 11:28:11;;;;;;;6.42;4.33;;;;;;;15.80;91.09;98562.41;3900769;91;21063;-83
2021/08/27 11:34:15;;;;;;;7.10;4.50;;;;;;;15.77;90.88;98559.70;3879690;89;21906;-83
2021/08/27 11:40:16;;;;;;;8.00;4.40;;;;;;;15.66;90.64;98562.02;3908643;89;21606;-83
2021/08/27 11:46:23;;;;;;;5.00;4.17;;;;;;;15.65;91.01;98560.47;3922984;89;21131;-83
2021/08/27 11:52:30;;;;;;;5.57;4.17;;;;;;;15.57;91.17;98562.36;3900878;90;21138;-83
2021/08/27 11:58:44;;;;;;;5.12;4.00;;;;;;;15.45;90.92;98561.58;3925242;90;21071;-83
2021/08/27 12:04:58;;;;;;;8.28;4.22;;;;;;;15.21;90.84;98568.19;3911521;89;21099;-84
2021/08/27 12:10:59;;;;;;;9.55;4.85;;;;;;;15.24;91.20;98568.73;3910665;89;21106;-84
2021/08/27 12:17:01;;;;;;;12.93;8.90;;;;;;;15.19;91.13;98574.74;3906455;90;21075;-84
2021/08/27 12:23:27;;;;;;;13.62;7.45;;;;;;;15.18;91.28;98580.84;3903647;89;21953;-83
2021/08/27 12:29:16;;;;;;;9.80;6.40;;;;;;;15.17;91.28;98580.67;3905667;90;22655;-84
2021/08/27 12:35:31;;;;;;;7.47;4.95;;;;;;;15.04;91.49;98587.14;3905438;89;21126;-84
2021/08/27 12:41:37;;;;;;;10.72;5.72;;;;;;;15.03;91.32;98585.00;3901542;90;21527;-85
2021/08/27 12:47:41;;;;;;;11.22;6.25;;;;;;;14.93;91.50;98584.52;3893715;89;21184;-84
2021/08/27 12:53:42;;;;;;;7.65;5.70;;;;;;;14.93;91.54;98580.98;3919673;90;21111;-84
2021/08/27 13:00:01;;;;;;;12.85;6.53;;;;;;;15.01;91.70;98590.72;3903827;90;21572;-84
2021/08/27 13:06:02;;;;;;;10.25;7.20;;;;;;;14.98;91.65;98593.72;3904208;89;21823;-84
2021/08/27 13:12:07;;;;;;;8.30;6.67;;;;;;;14.98;91.21;98599.82;3909290;90;21143;-84
2021/08/27 13:18:08;;;;;;;7.30;5.08;;;;;;;14.93;91.91;98594.76;3912232;90;22167;-85
2021/08/27 13:30:57;;;;;;;7.45;4.70;;;;;;;14.85;92.16;98599.58;3910387;90;21200;-85
2021/08/27 13:36:58;;;;;;;6.12;4.97;;;;;;;14.86;91.86;98590.73;3905424;89;21134;-85
2021/08/27 13:43:00;;;;;;;6.60;4.58;;;;;;;14.84;92.15;98597.24;3907353;89;21153;-84
2021/08/27 13:49:05;;;;;;;12.10;5.90;;;;;;;14.80;92.24;98595.90;3910549;89;21059;-84
2021/08/27 13:55:16;;;;;;;9.93;6.20;;;;;;;14.82;92.39;98597.66;3910284;90;21092;-84
2021/08/27 14:01:27;;;;;;;10.60;6.42;;;;;;;14.75;92.27;98591.45;3900783;90;22416;-84
2021/08/27 14:07:28;;;;;;;8.00;6.20;;;;;;;14.70;92.82;98600.95;3918041;90;21798;-84
2021/08/27 14:13:31;;;;;;;5.87;4.87;;;;;;;14.71;93.24;98596.20;3924486;90;21098;-84
2021/08/27 14:19:33;;;;;;;6.40;4.62;;;;;;;14.66;93.38;98603.57;3885651;89;21481;-85
2021/08/27 14:25:34;;;;;;;7.03;4.92;;;;;;;14.75;93.45;98609.36;3912630;89;21074;-84
2021/08/27 14:31:35;;;;;;;6.42;4.78;;;;;;;14.79;93.17;98603.99;3913717;90;21027;-83
2021/08/27 14:37:38;;;;;;;6.17;4.37;;;;;;;14.84;92.98;98603.55;3906217;90;21408;-84
2021/08/27 14:43:39;;;;;;;7.80;4.58;;;;;;;14.88;92.51;98611.16;3892742;90;21084;-84
2021/08/27 14:49:41;;;;;;;5.03;4.47;;;;;;;14.86;92.62;98610.78;3890314;90;21143;-83
2021/08/27 14:55:42;;;;;;;5.85;5.30;;;;;;;14.80;92.72;98605.55;3888679;90;21059;-83
2021/08/27 15:01:44;;;;;;;5.55;4.95;;;;;;;14.78;93.10;98609.91;3898259;89;21620;-82
2021/08/27 15:07:45;;;;;;;7.47;6.17;;;;;;;14.77;93.51;98622.14;3892824;89;21163;-84
2021/08/27 15:13:46;;;;;;;8.50;6.15;;;;;;;14.67;93.48;98619.69;3891127;89;21477;-83
2021/08/27 15:19:47;;;;;;;8.80;6.10;;;;;;;14.61;94.03;98619.92;3891084;89;21071;-84
2021/08/27 15:25:49;;;;;;;6.70;5.30;;;;;;;14.63;93.88;98621.69;3890967;89;21136;-83
2021/08/27 15:31:50;;;;;;;9.88;5.67;;;;;;;14.58;93.68;98622.13;3893074;90;21135;-83
2021/08/27 15:37:52;;;;;;;6.53;4.90;;;;;;;14.62;93.92;98622.89;3900106;89;22079;-84
2021/08/27 15:43:53;;;;;;;7.62;5.58;;;;;;;14.61;93.76;98628.19;3874211;89;21085;-83
2021/08/27 15:49:56;;;;;;;7.03;5.65;;;;;;;14.65;94.01;98628.16;3896582;90;21210;-83
2021/08/27 15:55:57;;;;;;;7.67;5.00;;;;;;;14.70;94.05;98628.50;3898290;89;21061;-83
2021/08/27 16:01:59;;;;;;;5.60;4.95;;;;;;;14.71;93.94;98633.40;3895635;89;21148;-83
2021/08/27 16:08:00;;;;;;;8.58;5.12;;;;;;;14.78;94.12;98633.34;3892227;90;21087;-83
2021/08/27 16:14:06;;;;;;;6.85;4.67;;;;;;;14.76;94.06;98632.95;3897760;90;21149;-83
2021/08/27 16:20:09;;;;;;;5.60;3.92;;;;;;;14.77;94.21;98636.68;3895541;89;21652;-83
2021/08/27 16:26:10;;;;;;;4.85;3.87;;;;;;;14.82;94.09;98634.86;3896715;90;21111;-83
2021/08/27 16:32:12;;;;;;;7.17;4.50;;;;;;;14.77;93.96;98632.55;3906555;90;21083;-83
2021/08/27 16:38:13;;;;;;;6.28;5.03;;;;;;;14.78;93.85;98630.58;3897916;90;21661;-83
2021/08/27 16:44:15;;;;;;;8.05;5.42;;;;;;;14.80;93.97;98639.23;3910983;89;21091;-83
2021/08/27 16:50:16;;;;;;;9.40;5.70;;;;;;;14.83;93.95;98646.05;3913912;90;21590;-83
2021/08/27 16:56:19;;;;;;;7.53;5.33;;;;;;;14.79;94.09;98647.28;3908518;90;21640;-83
2021/08/27 17:02:20;;;;;;;7.37;4.60;;;;;;;14.79;93.89;98648.66;3903514;89;21016;-83
2021/08/27 17:08:22;;;;;;;7.17;4.35;;;;;;;14.73;93.84;98649.72;3913419;89;21074;-83
2021/08/27 17:14:23;;;;;;;5.90;5.28;;;;;;;14.72;93.72;98658.40;3906921;89;21926;-83
2021/08/27 17:20:24;;;;;;;8.08;5.70;;;;;;;14.71;93.68;98656.23;3917599;89;21114;-84
2021/08/27 17:26:26;;;;;;;8.18;5.17;;;;;;;14.65;93.91;98661.22;3914779;89;21633;-83
2021/08/27 17:32:27;;;;;;;9.45;5.42;;;;;;;14.62;94.29;98660.08;3905236;90;21084;-83
2021/08/27 17:38:28;;;;;;;8.35;5.83;;;;;;;14.59;94.73;98663.65;3907641;88;21096;-83
2021/08/27 17:44:30;;;;;;;8.53;5.90;;;;;;;14.55;94.91;98661.51;3915836;89;21068;-83
2021/08/27 17:50:31;;;;;;;10.28;5.58;;;;;;;14.47;94.93;98672.41;3915693;89;21950;-84
2021/08/27 17:56:32;;;;;;;6.75;5.62;;;;;;;14.37;95.17;98680.77;3921649;90;21581;-83
2021/08/27 18:02:34;;;;;;;9.48;5.15;;;;;;;14.34;95.50;98684.34;3913460;90;22308;-84
2021/08/27 18:08:35;;;;;;;10.15;5.50;;;;;;;14.35;95.50;98692.20;3918267;89;21675;-83
2021/08/27 18:14:36;;;;;;;7.70;6.08;;;;;;;14.36;95.51;98702.63;3912980;90;21980;-83
2021/08/27 18:20:37;;;;;;;8.38;6.47;;;;;;;14.29;95.80;98704.84;3925907;89;21606;-84
2021/08/27 18:26:38;;;;;;;9.63;5.75;;;;;;;14.32;96.13;98712.28;3916420;89;21094;-83
2021/08/27 18:32:39;;;;;;;13.05;7.05;;;;;;;14.23;95.87;98718.20;3916417;89;21624;-83
2021/08/27 18:38:41;;;;;;;17.70;8.30;;;;;;;14.17;96.25;98723.97;3923396;89;21067;-82
2021/08/27 18:44:42;;;;;;;26.20;12.05;;;;;;;14.13;96.31;98714.17;3924363;89;21128;-84
2021/08/27 18:50:43;;;;;;;31.62;17.67;;;;;;;14.04;96.43;98720.73;3927418;89;21586;-82
2021/08/27 18:56:45;;;;;;;25.15;16.12;;;;;;;13.97;96.37;98720.19;3928012;90;21071;-83
2021/08/27 19:02:46;;;;;;;16.42;10.82;;;;;;;13.86;96.44;98726.94;3912517;89;21105;-83
2021/08/27 19:08:47;;;;;;;16.70;11.75;;;;;;;13.75;96.74;98722.88;3912083;89;21154;-83
2021/08/27 19:14:48;;;;;;;21.40;13.80;;;;;;;13.71;96.78;98726.84;3846867;90;21110;-84
2021/08/27 19:20:49;;;;;;;16.87;12.68;;;;;;;13.68;96.60;98735.31;3850693;90;21153;-84
2021/08/27 19:26:51;;;;;;;19.73;12.70;;;;;;;13.48;96.80;98728.74;3830997;91;21619;-83
2021/08/27 19:32:53;;;;;;;19.65;13.13;;;;;;;13.42;96.75;98730.31;3846126;90;21041;-83
2021/08/27 19:38:54;;;;;;;17.32;11.95;;;;;;;13.42;97.29;98733.68;3853412;91;21132;-84
2021/08/27 19:44:57;;;;;;;17.37;11.38;;;;;;;13.39;97.19;98731.12;3854607;90;21132;-82
2021/08/27 19:50:59;;;;;;;18.37;11.85;;;;;;;13.30;97.39;98738.22;3854534;90;21078;-84
2021/08/27 19:57:00;;;;;;;15.15;11.25;;;;;;;13.25;97.07;98735.91;3849504;91;21509;-84
2021/08/27 20:03:01;;;;;;;17.62;11.28;;;;;;;13.02;96.91;98739.11;3848553;91;21117;-83
2021/08/27 20:09:02;;;;;;;15.98;10.93;;;;;;;12.85;97.54;98735.79;3855031;92;21204;-84
2021/08/27 20:15:06;;;;;;;13.85;10.03;;;;;;;12.90;97.75;98735.39;3854041;90;21081;-83
2021/08/27 20:21:08;;;;;;;14.10;10.20;;;;;;;12.94;97.50;98740.86;3860269;90;21149;-82
2021/08/27 20:27:09;;;;;;;17.75;9.98;;;;;;;12.92;97.72;98748.73;3861199;90;21166;-83
2021/08/27 20:33:11;;;;;;;18.02;10.70;;;;;;;12.81;97.59;98747.97;3827600;92;21050;-83
2021/08/27 20:39:12;;;;;;;14.60;9.70;;;;;;;12.71;97.63;98749.55;3850801;90;21106;-83
2021/08/27 20:45:13;;;;;;;13.88;8.88;;;;;;;12.69;97.89;98753.27;3789215;93;21151;-84
2021/08/27 20:51:15;;;;;;;11.22;7.78;;;;;;;12.71;97.96;98757.78;3779774;93;21090;-83
2021/08/27 20:57:16;;;;;;;11.78;8.93;;;;;;;12.72;97.92;98760.72;3783901;92;21132;-83
2021/08/27 21:03:20;;;;;;;13.65;9.18;;;;;;;12.64;97.23;98764.06;3788581;93;21113;-83
2021/08/27 21:09:23;;;;;;;11.15;8.63;;;;;;;12.42;96.86;98766.63;3782580;93;21186;-83
2021/08/27 21:15:24;;;;;;;15.32;9.35;;;;;;;12.18;97.31;98772.11;3781028;93;21656;-83
2021/08/27 21:21:26;;;;;;;12.20;8.90;;;;;;;12.10;97.09;98772.69;3780062;92;21100;-83
2021/08/27 21:27:27;;;;;;;10.72;8.93;;;;;;;12.11;97.67;98781.69;3788990;93;22310;-83
2021/08/27 21:33:28;;;;;;;15.60;9.53;;;;;;;11.91;97.17;98788.13;3788605;92;21094;-83
2021/08/27 21:39:29;;;;;;;13.80;9.58;;;;;;;11.72;97.40;98785.72;3776506;92;21192;-83
2021/08/27 21:45:31;;;;;;;11.10;8.08;;;;;;;11.74;97.99;98790.81;3904028;89;21145;-83
2021/08/27 21:51:32;;;;;;;11.93;8.65;;;;;;;11.87;98.08;98787.92;3901869;90;21106;-83
2021/08/27 21:57:35;;;;;;;14.05;8.55;;;;;;;11.86;97.49;98786.34;3904966;90;21063;-83
2021/08/27 22:03:36;;;;;;;16.42;9.33;;;;;;;11.89;97.68;98778.12;3878849;89;21080;-83
2021/08/27 22:09:39;;;;;;;12.00;9.00;;;;;;;11.75;97.00;98784.15;3894360;90;21155;-82
2021/08/27 22:15:40;;;;;;;12.85;9.18;;;;;;;11.70;97.78;98788.05;3827930;92;21185;-82
2021/08/27 22:21:42;;;;;;;16.02;9.83;;;;;;;11.49;97.20;98798.13;3796864;93;21619;-82
2021/08/27 22:27:44;;;;;;;14.38;8.43;;;;;;;11.43;97.46;98794.20;3888251;90;21754;-82
2021/08/27 22:33:46;;;;;;;15.45;9.50;;;;;;;11.24;97.14;98800.77;3904109;89;21629;-83
2021/08/27 22:39:47;;;;;;;14.30;9.23;;;;;;;11.34;98.60;98801.38;3903459;90;21854;-83
2021/08/27 22:45:48;;;;;;;12.98;8.68;;;;;;;11.20;97.64;98793.09;3902509;90;21107;-82
2021/08/27 22:51:49;;;;;;;14.78;8.98;;;;;;;11.04;97.56;98794.77;3818724;91;21141;-82
2021/08/27 22:57:50;;;;;;;10.55;7.83;;;;;;;11.03;97.63;98796.52;3903358;89;21044;-82
2021/08/27 23:03:51;;;;;;;12.28;8.33;;;;;;;10.97;97.44;98800.80;3901251;89;21525;-81
2021/08/27 23:09:52;;;;;;;13.13;9.55;;;;;;;10.84;97.49;98805.00;3898666;90;21107;-82
2021/08/27 23:15:54;;;;;;;14.05;8.85;;;;;;;10.59;97.19;98808.13;3900936;90;21905;-83
2021/08/27 23:21:59;;;;;;;12.30;8.18;;;;;;;10.42;98.04;98802.73;3904177;89;21079;-83
2021/08/27 23:27:58;;;;;;;13.10;8.88;;;;;;;10.74;99.18;98805.73;3832974;91;21674;-83
2021/08/27 23:33:59;;;;;;;14.43;8.45;;;;;;;10.92;99.08;98805.25;3790097;91;21085;-84
2021/08/27 23:40:00;;;;;;;12.65;9.40;;;;;;;11.01;98.93;98798.84;3884414;90;21057;-83
2021/08/27 23:46:02;;;;;;;12.00;8.55;;;;;;;10.97;98.35;98789.84;3843566;91;21151;-83
2021/08/27 23:52:04;;;;;;;15.72;9.10;;;;;;;10.98;98.77;98794.93;3844471;91;21134;-81
2021/08/27 23:58:05;;;;;;;12.00;8.68;;;;;;;10.90;98.29;98799.36;3842504;91;21039;-83
